sensor_id;sensor_type;location;lat;lon;timestamp;temperature;humidity
66871;DHT22;53780;44.998;9.926;2023-03-14T00:02:05;13.78;73.10
66871;DHT22;53780;44.998;9.926;2023-03-14T00:05:09;13.71;72.54
66871;DHT22;53780;44.998;9.926;2023-03-14T00:08:14;13.72;71.72
66871;DHT22;53780;44.998;9.926;2023-03-14T00:11:19;13.75;70.95
66871;DHT22;53780;44.998;9.926;2023-03-14T00:14:24;13.65;70.75
66871;DHT22;53780;44.998;9.926;2023-03-14T00:17:27;13.74;70.14
66871;DHT22;53780;44.998;9.926;2023-03-14T00:20:31;13.61;69.46
66871;DHT22;53780;44.998;9.926;2023-03-14T00:23:36;13.59;68.82
66871;DHT22;53780;44.998;9.926;2023-03-14T00:26:41;13.59;68.14
66871;DHT22;53780;44.998;9.926;2023-03-14T00:29:45;13.55;68.62
66871;DHT22;53780;44.998;9.926;2023-03-14T00:32:48;13.54;68.69
66871;DHT22;53780;44.998;9.926;2023-03-14T00:35:56;13.48;68.39
66871;DHT22;53780;44.998;9.926;2023-03-14T00:39:01;13.48;68.20
66871;DHT22;53780;44.998;9.926;2023-03-14T00:42:05;13.40;68.37
66871;DHT22;53780;44.998;9.926;2023-03-14T00:45:09;13.28;69.00
66871;DHT22;53780;44.998;9.926;2023-03-14T00:48:13;13.20;70.07
66871;DHT22;53780;44.998;9.926;2023-03-14T00:51:17;13.11;70.81
66871;DHT22;53780;44.998;9.926;2023-03-14T00:54:21;13.20;71.00
66871;DHT22;53780;44.998;9.926;2023-03-14T00:57:25;13.04;72.05
66871;DHT22;53780;44.998;9.926;2023-03-14T01:00:28;12.90;72.69
66871;DHT22;53780;44.998;9.926;2023-03-14T01:03:32;13.06;72.44
66871;DHT22;53780;44.998;9.926;2023-03-14T01:06:36;13.06;72.35
66871;DHT22;53780;44.998;9.926;2023-03-14T01:09:39;13.07;72.59
66871;DHT22;53780;44.998;9.926;2023-03-14T01:12:43;13.06;72.63
66871;DHT22;53780;44.998;9.926;2023-03-14T01:15:47;13.02;73.33
66871;DHT22;53780;44.998;9.926;2023-03-14T01:18:51;12.90;74.37
66871;DHT22;53780;44.998;9.926;2023-03-14T01:21:55;12.99;74.24
66871;DHT22;53780;44.998;9.926;2023-03-14T01:24:59;12.76;75.50
66871;DHT22;53780;44.998;9.926;2023-03-14T01:28:03;12.80;74.30
66871;DHT22;53780;44.998;9.926;2023-03-14T01:31:09;12.69;74.78
66871;DHT22;53780;44.998;9.926;2023-03-14T01:34:14;12.63;75.38
66871;DHT22;53780;44.998;9.926;2023-03-14T01:37:18;12.73;75.44
66871;DHT22;53780;44.998;9.926;2023-03-14T01:40:22;12.71;75.76
66871;DHT22;53780;44.998;9.926;2023-03-14T01:43:27;12.66;75.57
66871;DHT22;53780;44.998;9.926;2023-03-14T01:46:40;12.55;76.36
66871;DHT22;53780;44.998;9.926;2023-03-14T01:49:50;12.48;76.61
66871;DHT22;53780;44.998;9.926;2023-03-14T01:52:55;12.53;76.13
66871;DHT22;53780;44.998;9.926;2023-03-14T01:55:59;12.48;75.66
66871;DHT22;53780;44.998;9.926;2023-03-14T01:59:06;12.41;75.45
66871;DHT22;53780;44.998;9.926;2023-03-14T02:02:12;12.51;75.18
66871;DHT22;53780;44.998;9.926;2023-03-14T02:05:20;12.58;74.81
66871;DHT22;53780;44.998;9.926;2023-03-14T02:08:31;12.38;75.10
66871;DHT22;53780;44.998;9.926;2023-03-14T02:11:40;12.28;75.45
66871;DHT22;53780;44.998;9.926;2023-03-14T02:14:52;12.31;75.35
66871;DHT22;53780;44.998;9.926;2023-03-14T02:18:17;12.40;75.11
66871;DHT22;53780;44.998;9.926;2023-03-14T02:29:00;12.18;75.79
66871;DHT22;53780;44.998;9.926;2023-03-14T02:32:04;12.06;76.52
66871;DHT22;53780;44.998;9.926;2023-03-14T02:35:11;12.10;76.35
66871;DHT22;53780;44.998;9.926;2023-03-14T02:41:23;12.38;75.63
66871;DHT22;53780;44.998;9.926;2023-03-14T02:44:50;12.28;76.52
66871;DHT22;53780;44.998;9.926;2023-03-14T02:47:59;12.31;76.88
66871;DHT22;53780;44.998;9.926;2023-03-14T02:51:08;12.38;77.11
66871;DHT22;53780;44.998;9.926;2023-03-14T02:54:14;12.33;77.50
66871;DHT22;53780;44.998;9.926;2023-03-14T02:57:19;12.53;77.12
66871;DHT22;53780;44.998;9.926;2023-03-14T03:00:23;12.73;76.41
66871;DHT22;53780;44.998;9.926;2023-03-14T03:03:28;12.73;76.38
66871;DHT22;53780;44.998;9.926;2023-03-14T03:06:32;12.92;75.75
66871;DHT22;53780;44.998;9.926;2023-03-14T03:09:37;12.88;75.84
66871;DHT22;53780;44.998;9.926;2023-03-14T03:12:42;12.83;75.80
66871;DHT22;53780;44.998;9.926;2023-03-14T03:15:48;12.80;75.83
66871;DHT22;53780;44.998;9.926;2023-03-14T03:18:51;12.85;75.90
66871;DHT22;53780;44.998;9.926;2023-03-14T03:21:58;12.97;75.18
66871;DHT22;53780;44.998;9.926;2023-03-14T03:25:03;12.97;75.05
66871;DHT22;53780;44.998;9.926;2023-03-14T03:28:08;12.89;75.12
66871;DHT22;53780;44.998;9.926;2023-03-14T03:31:15;12.80;75.39
66871;DHT22;53780;44.998;9.926;2023-03-14T03:34:18;12.71;75.97
66871;DHT22;53780;44.998;9.926;2023-03-14T03:37:25;12.66;76.00
66871;DHT22;53780;44.998;9.926;2023-03-14T03:40:29;12.61;76.35
66871;DHT22;53780;44.998;9.926;2023-03-14T03:43:33;12.53;76.69
66871;DHT22;53780;44.998;9.926;2023-03-14T03:46:39;12.44;76.87
66871;DHT22;53780;44.998;9.926;2023-03-14T03:49:45;12.37;76.93
66871;DHT22;53780;44.998;9.926;2023-03-14T03:52:48;12.00;78.62
66871;DHT22;53780;44.998;9.926;2023-03-14T03:55:52;12.00;78.44
66871;DHT22;53780;44.998;9.926;2023-03-14T03:58:57;12.00;78.66
66871;DHT22;53780;44.998;9.926;2023-03-14T04:02:02;12.12;78.53
66871;DHT22;53780;44.998;9.926;2023-03-14T04:05:06;12.13;78.58
66871;DHT22;53780;44.998;9.926;2023-03-14T04:08:10;12.20;78.15
66871;DHT22;53780;44.998;9.926;2023-03-14T04:11:14;12.10;78.01
66871;DHT22;53780;44.998;9.926;2023-03-14T04:14:46;11.94;78.23
66871;DHT22;53780;44.998;9.926;2023-03-14T04:17:58;11.90;78.30
66871;DHT22;53780;44.998;9.926;2023-03-14T04:21:02;11.86;78.45
66871;DHT22;53780;44.998;9.926;2023-03-14T04:24:19;12.06;77.79
66871;DHT22;53780;44.998;9.926;2023-03-14T04:27:25;11.93;78.17
66871;DHT22;53780;44.998;9.926;2023-03-14T04:30:30;11.85;78.45
66871;DHT22;53780;44.998;9.926;2023-03-14T04:33:48;11.93;77.96
66871;DHT22;53780;44.998;9.926;2023-03-14T04:36:56;11.86;78.40
66871;DHT22;53780;44.998;9.926;2023-03-14T04:40:11;11.66;79.53
66871;DHT22;53780;44.998;9.926;2023-03-14T04:43:15;11.68;79.26
66871;DHT22;53780;44.998;9.926;2023-03-14T04:46:25;11.57;79.50
66871;DHT22;53780;44.998;9.926;2023-03-14T04:49:29;11.69;80.07
66871;DHT22;53780;44.998;9.926;2023-03-14T04:52:34;11.59;82.25
66871;DHT22;53780;44.998;9.926;2023-03-14T04:55:38;11.69;82.64
66871;DHT22;53780;44.998;9.926;2023-03-14T04:58:42;11.72;82.68
66871;DHT22;53780;44.998;9.926;2023-03-14T05:01:48;11.73;84.44
66871;DHT22;53780;44.998;9.926;2023-03-14T05:05:11;11.57;85.16
66871;DHT22;53780;44.998;9.926;2023-03-14T05:08:33;11.45;85.71
66871;DHT22;53780;44.998;9.926;2023-03-14T05:12:04;11.55;86.71
66871;DHT22;53780;44.998;9.926;2023-03-14T05:15:31;11.65;86.85
66871;DHT22;53780;44.998;9.926;2023-03-14T05:18:55;11.69;87.02
66871;DHT22;53780;44.998;9.926;2023-03-14T05:22:17;11.75;87.20
66871;DHT22;53780;44.998;9.926;2023-03-14T05:25:33;11.82;87.23
66871;DHT22;53780;44.998;9.926;2023-03-14T05:28:50;11.91;87.21
66871;DHT22;53780;44.998;9.926;2023-03-14T05:32:16;11.98;87.12
66871;DHT22;53780;44.998;9.926;2023-03-14T05:35:41;12.01;87.22
66871;DHT22;53780;44.998;9.926;2023-03-14T05:38:54;12.01;87.15
66871;DHT22;53780;44.998;9.926;2023-03-14T05:42:04;12.06;87.08
66871;DHT22;53780;44.998;9.926;2023-03-14T05:45:29;12.04;87.12
66871;DHT22;53780;44.998;9.926;2023-03-14T05:49:02;12.06;87.38
66871;DHT22;53780;44.998;9.926;2023-03-14T05:52:27;12.10;87.49
66871;DHT22;53780;44.998;9.926;2023-03-14T05:55:43;12.16;87.42
66871;DHT22;53780;44.998;9.926;2023-03-14T05:59:05;12.10;87.42
66871;DHT22;53780;44.998;9.926;2023-03-14T06:02:29;12.17;87.45
66871;DHT22;53780;44.998;9.926;2023-03-14T06:05:41;12.20;87.60
66871;DHT22;53780;44.998;9.926;2023-03-14T06:08:45;12.18;87.74
66871;DHT22;53780;44.998;9.926;2023-03-14T06:11:49;12.13;88.07
66871;DHT22;53780;44.998;9.926;2023-03-14T06:14:54;12.13;88.16
66871;DHT22;53780;44.998;9.926;2023-03-14T06:17:58;12.16;88.16
66871;DHT22;53780;44.998;9.926;2023-03-14T06:21:03;12.24;88.03
66871;DHT22;53780;44.998;9.926;2023-03-14T06:24:07;12.31;88.14
66871;DHT22;53780;44.998;9.926;2023-03-14T06:27:17;12.35;88.11
66871;DHT22;53780;44.998;9.926;2023-03-14T06:30:21;12.41;88.21
66871;DHT22;53780;44.998;9.926;2023-03-14T06:33:26;12.40;88.23
66871;DHT22;53780;44.998;9.926;2023-03-14T06:36:30;12.49;88.28
66871;DHT22;53780;44.998;9.926;2023-03-14T06:39:35;12.46;88.33
66871;DHT22;53780;44.998;9.926;2023-03-14T06:42:47;12.58;87.66
66871;DHT22;53780;44.998;9.926;2023-03-14T06:45:53;12.53;87.53
66871;DHT22;53780;44.998;9.926;2023-03-14T06:48:57;12.58;87.55
66871;DHT22;53780;44.998;9.926;2023-03-14T06:52:02;12.68;87.80
66871;DHT22;53780;44.998;9.926;2023-03-14T06:55:07;12.75;87.97
66871;DHT22;53780;44.998;9.926;2023-03-14T06:58:12;12.85;87.99
66871;DHT22;53780;44.998;9.926;2023-03-14T07:01:23;12.83;87.93
66871;DHT22;53780;44.998;9.926;2023-03-14T07:04:28;12.95;87.89
66871;DHT22;53780;44.998;9.926;2023-03-14T07:07:32;13.00;88.10
66871;DHT22;53780;44.998;9.926;2023-03-14T07:10:36;13.06;87.60
66871;DHT22;53780;44.998;9.926;2023-03-14T07:13:40;13.10;87.61
66871;DHT22;53780;44.998;9.926;2023-03-14T07:16:45;13.14;86.87
66871;DHT22;53780;44.998;9.926;2023-03-14T07:19:49;13.24;86.11
66871;DHT22;53780;44.998;9.926;2023-03-14T07:22:53;13.26;86.35
66871;DHT22;53780;44.998;9.926;2023-03-14T07:26:08;13.24;86.30
66871;DHT22;53780;44.998;9.926;2023-03-14T07:29:15;13.28;86.43
66871;DHT22;53780;44.998;9.926;2023-03-14T07:32:19;13.23;86.59
66871;DHT22;53780;44.998;9.926;2023-03-14T07:35:23;13.23;86.20
66871;DHT22;53780;44.998;9.926;2023-03-14T07:38:28;13.28;86.50
66871;DHT22;53780;44.998;9.926;2023-03-14T07:41:50;13.37;87.11
66871;DHT22;53780;44.998;9.926;2023-03-14T07:45:10;13.47;87.48
66871;DHT22;53780;44.998;9.926;2023-03-14T07:48:14;13.50;86.67
66871;DHT22;53780;44.998;9.926;2023-03-14T07:51:18;13.50;86.26
66871;DHT22;53780;44.998;9.926;2023-03-14T07:54:22;13.40;85.73
66871;DHT22;53780;44.998;9.926;2023-03-14T07:57:27;13.34;85.44
66871;DHT22;53780;44.998;9.926;2023-03-14T08:00:30;13.40;85.58
66871;DHT22;53780;44.998;9.926;2023-03-14T08:03:34;13.33;86.01
66871;DHT22;53780;44.998;9.926;2023-03-14T08:06:38;13.36;86.16
66871;DHT22;53780;44.998;9.926;2023-03-14T08:09:42;13.37;86.29
66871;DHT22;53780;44.998;9.926;2023-03-14T08:12:47;13.34;86.30
66871;DHT22;53780;44.998;9.926;2023-03-14T08:15:51;13.33;86.06
66871;DHT22;53780;44.998;9.926;2023-03-14T08:18:55;13.33;86.07
66871;DHT22;53780;44.998;9.926;2023-03-14T08:21:59;13.37;86.61
66871;DHT22;53780;44.998;9.926;2023-03-14T08:25:04;13.36;86.81
66871;DHT22;53780;44.998;9.926;2023-03-14T08:28:08;13.37;86.37
66871;DHT22;53780;44.998;9.926;2023-03-14T08:31:12;13.33;86.08
66871;DHT22;53780;44.998;9.926;2023-03-14T08:34:16;13.28;86.49
66871;DHT22;53780;44.998;9.926;2023-03-14T08:37:20;13.38;86.66
66871;DHT22;53780;44.998;9.926;2023-03-14T08:40:24;13.38;86.82
66871;DHT22;53780;44.998;9.926;2023-03-14T08:43:28;13.43;86.57
66871;DHT22;53780;44.998;9.926;2023-03-14T08:46:32;13.34;86.52
66871;DHT22;53780;44.998;9.926;2023-03-14T08:49:35;13.36;85.70
66871;DHT22;53780;44.998;9.926;2023-03-14T08:52:39;13.31;85.50
66871;DHT22;53780;44.998;9.926;2023-03-14T08:55:46;13.34;84.71
66871;DHT22;53780;44.998;9.926;2023-03-14T08:58:50;13.37;84.19
66871;DHT22;53780;44.998;9.926;2023-03-14T09:01:53;13.37;84.34
66871;DHT22;53780;44.998;9.926;2023-03-14T09:04:58;13.53;84.66
66871;DHT22;53780;44.998;9.926;2023-03-14T09:08:02;13.55;85.24
66871;DHT22;53780;44.998;9.926;2023-03-14T09:11:07;13.54;85.76
66871;DHT22;53780;44.998;9.926;2023-03-14T09:14:12;13.58;86.41
66871;DHT22;53780;44.998;9.926;2023-03-14T09:17:15;13.66;86.94
66871;DHT22;53780;44.998;9.926;2023-03-14T09:20:19;13.71;86.20
66871;DHT22;53780;44.998;9.926;2023-03-14T09:23:23;13.78;86.10
66871;DHT22;53780;44.998;9.926;2023-03-14T09:26:27;13.86;86.08
66871;DHT22;53780;44.998;9.926;2023-03-14T09:29:30;13.92;85.46
66871;DHT22;53780;44.998;9.926;2023-03-14T09:32:34;13.93;84.39
66871;DHT22;53780;44.998;9.926;2023-03-14T09:35:38;14.05;84.33
66871;DHT22;53780;44.998;9.926;2023-03-14T09:38:42;14.14;84.20
66871;DHT22;53780;44.998;9.926;2023-03-14T09:41:48;14.17;84.59
66871;DHT22;53780;44.998;9.926;2023-03-14T09:45:03;14.19;84.53
66871;DHT22;53780;44.998;9.926;2023-03-14T09:48:16;14.21;83.77
66871;DHT22;53780;44.998;9.926;2023-03-14T09:51:20;14.27;82.37
66871;DHT22;53780;44.998;9.926;2023-03-14T09:54:32;14.29;82.75
66871;DHT22;53780;44.998;9.926;2023-03-14T09:57:39;14.37;83.37
66871;DHT22;53780;44.998;9.926;2023-03-14T10:00:44;14.45;82.35
66871;DHT22;53780;44.998;9.926;2023-03-14T10:03:48;14.52;81.31
66871;DHT22;53780;44.998;9.926;2023-03-14T10:06:53;14.68;83.15
66871;DHT22;53780;44.998;9.926;2023-03-14T10:09:58;14.81;83.92
66871;DHT22;53780;44.998;9.926;2023-03-14T10:16:17;15.06;80.65
66871;DHT22;53780;44.998;9.926;2023-03-14T10:19:31;15.12;78.78
66871;DHT22;53780;44.998;9.926;2023-03-14T10:22:35;15.18;81.08
66871;DHT22;53780;44.998;9.926;2023-03-14T10:25:44;15.29;81.58
66871;DHT22;53780;44.998;9.926;2023-03-14T10:28:53;15.41;78.81
66871;DHT22;53780;44.998;9.926;2023-03-14T10:32:06;15.46;77.19
66871;DHT22;53780;44.998;9.926;2023-03-14T10:38:18;15.39;76.79
66871;DHT22;53780;44.998;9.926;2023-03-14T10:41:26;15.33;77.67
66871;DHT22;53780;44.998;9.926;2023-03-14T10:44:31;15.32;79.24
66871;DHT22;53780;44.998;9.926;2023-03-14T10:47:36;15.33;78.07
66871;DHT22;53780;44.998;9.926;2023-03-14T10:50:55;15.43;77.33
66871;DHT22;53780;44.998;9.926;2023-03-14T10:54:03;15.49;77.04
66871;DHT22;53780;44.998;9.926;2023-03-14T10:57:13;15.41;75.38
66871;DHT22;53780;44.998;9.926;2023-03-14T11:00:19;15.44;75.70
66871;DHT22;53780;44.998;9.926;2023-03-14T11:03:26;15.40;77.65
66871;DHT22;53780;44.998;9.926;2023-03-14T11:13:23;15.61;75.31
66871;DHT22;53780;44.998;9.926;2023-03-14T11:23:43;16.17;76.45
66871;DHT22;53780;44.998;9.926;2023-03-14T11:27:00;16.27;76.36
66871;DHT22;53780;44.998;9.926;2023-03-14T11:37:00;16.70;74.03
66871;DHT22;53780;44.998;9.926;2023-03-14T11:43:28;16.74;74.58
66871;DHT22;53780;44.998;9.926;2023-03-14T11:46:39;16.74;73.77
66871;DHT22;53780;44.998;9.926;2023-03-14T11:56:52;16.75;73.00
66871;DHT22;53780;44.998;9.926;2023-03-14T12:00:24;16.71;73.65
66871;DHT22;53780;44.998;9.926;2023-03-14T12:07:04;16.64;72.92
66871;DHT22;53780;44.998;9.926;2023-03-14T12:10:10;16.60;73.76
66871;DHT22;53780;44.998;9.926;2023-03-14T12:13:15;16.63;73.17
66871;DHT22;53780;44.998;9.926;2023-03-14T12:19:34;16.75;73.40
66871;DHT22;53780;44.998;9.926;2023-03-14T12:22:45;16.75;73.63
66871;DHT22;53780;44.998;9.926;2023-03-14T12:26:16;16.85;73.13
66871;DHT22;53780;44.998;9.926;2023-03-14T12:29:21;16.87;71.54
66871;DHT22;53780;44.998;9.926;2023-03-14T12:32:25;16.91;71.92
66871;DHT22;53780;44.998;9.926;2023-03-14T12:39:13;16.92;72.73
66871;DHT22;53780;44.998;9.926;2023-03-14T12:42:35;16.92;71.61
66871;DHT22;53780;44.998;9.926;2023-03-14T12:45:39;16.92;71.26
66871;DHT22;53780;44.998;9.926;2023-03-14T12:52:14;16.96;71.00
66871;DHT22;53780;44.998;9.926;2023-03-14T12:55:32;17.04;72.18
66871;DHT22;53780;44.998;9.926;2023-03-14T12:59:10;17.07;72.19
66871;DHT22;53780;44.998;9.926;2023-03-14T13:02:21;17.15;70.80
66871;DHT22;53780;44.998;9.926;2023-03-14T13:05:29;17.30;71.27
66871;DHT22;53780;44.998;9.926;2023-03-14T13:08:44;17.43;70.19
66871;DHT22;53780;44.998;9.926;2023-03-14T13:11:48;17.62;69.80
66871;DHT22;53780;44.998;9.926;2023-03-14T13:14:53;17.69;69.17
66871;DHT22;53780;44.998;9.926;2023-03-14T13:18:11;17.78;67.72
66871;DHT22;53780;44.998;9.926;2023-03-14T13:21:24;17.81;67.27
66871;DHT22;53780;44.998;9.926;2023-03-14T13:24:28;17.90;65.21
66871;DHT22;53780;44.998;9.926;2023-03-14T13:27:35;17.81;66.43
66871;DHT22;53780;44.998;9.926;2023-03-14T13:30:42;17.80;67.77
66871;DHT22;53780;44.998;9.926;2023-03-14T13:33:46;17.80;66.40
66871;DHT22;53780;44.998;9.926;2023-03-14T13:36:53;17.85;66.38
66871;DHT22;53780;44.998;9.926;2023-03-14T13:39:57;17.90;66.31
66871;DHT22;53780;44.998;9.926;2023-03-14T13:43:14;17.92;65.83
66871;DHT22;53780;44.998;9.926;2023-03-14T13:46:22;18.00;67.22
66871;DHT22;53780;44.998;9.926;2023-03-14T13:49:29;18.00;67.02
66871;DHT22;53780;44.998;9.926;2023-03-14T13:52:37;17.97;66.99
66871;DHT22;53780;44.998;9.926;2023-03-14T13:55:41;18.00;66.22
66871;DHT22;53780;44.998;9.926;2023-03-14T13:58:46;18.04;67.18
66871;DHT22;53780;44.998;9.926;2023-03-14T14:01:50;17.97;66.62
66871;DHT22;53780;44.998;9.926;2023-03-14T14:04:56;17.97;66.94
66871;DHT22;53780;44.998;9.926;2023-03-14T14:08:02;17.97;66.48
66871;DHT22;53780;44.998;9.926;2023-03-14T14:11:09;18.01;67.51
66871;DHT22;53780;44.998;9.926;2023-03-14T14:17:54;18.08;67.86
66871;DHT22;53780;44.998;9.926;2023-03-14T14:20:59;18.08;66.84
66871;DHT22;53780;44.998;9.926;2023-03-14T14:24:04;18.11;67.31
66871;DHT22;53780;44.998;9.926;2023-03-14T14:27:13;18.12;67.15
66871;DHT22;53780;44.998;9.926;2023-03-14T14:33:21;18.09;66.32
66871;DHT22;53780;44.998;9.926;2023-03-14T14:36:29;18.05;67.59
66871;DHT22;53780;44.998;9.926;2023-03-14T14:39:34;18.04;66.72
66871;DHT22;53780;44.998;9.926;2023-03-14T14:42:40;18.06;67.57
66871;DHT22;53780;44.998;9.926;2023-03-14T14:45:46;18.09;67.02
66871;DHT22;53780;44.998;9.926;2023-03-14T14:48:56;18.05;66.39
66871;DHT22;53780;44.998;9.926;2023-03-14T14:52:10;17.98;66.94
66871;DHT22;53780;44.998;9.926;2023-03-14T14:55:18;17.92;68.18
66871;DHT22;53780;44.998;9.926;2023-03-14T14:58:34;17.80;69.20
66871;DHT22;53780;44.998;9.926;2023-03-14T15:01:38;17.80;69.43
66871;DHT22;53780;44.998;9.926;2023-03-14T15:04:47;17.80;69.56
66871;DHT22;53780;44.998;9.926;2023-03-14T15:07:51;17.81;68.22
66871;DHT22;53780;44.998;9.926;2023-03-14T15:10:57;17.74;68.70
66871;DHT22;53780;44.998;9.926;2023-03-14T15:14:00;17.80;68.86
66871;DHT22;53780;44.998;9.926;2023-03-14T15:17:08;17.70;68.76
66871;DHT22;53780;44.998;9.926;2023-03-14T15:20:15;17.59;69.57
66871;DHT22;53780;44.998;9.926;2023-03-14T15:23:20;17.51;68.95
66871;DHT22;53780;44.998;9.926;2023-03-14T15:26:27;17.45;69.40
66871;DHT22;53780;44.998;9.926;2023-03-14T15:29:31;17.39;70.41
66871;DHT22;53780;44.998;9.926;2023-03-14T15:32:35;17.32;71.20
66871;DHT22;53780;44.998;9.926;2023-03-14T15:35:38;17.26;70.12
66871;DHT22;53780;44.998;9.926;2023-03-14T15:38:42;17.23;70.91
66871;DHT22;53780;44.998;9.926;2023-03-14T15:41:46;17.19;72.16
66871;DHT22;53780;44.998;9.926;2023-03-14T15:44:50;17.12;71.84
66871;DHT22;53780;44.998;9.926;2023-03-14T15:47:54;17.08;72.11
66871;DHT22;53780;44.998;9.926;2023-03-14T15:50:58;16.99;72.11
66871;DHT22;53780;44.998;9.926;2023-03-14T15:54:01;16.88;71.47
66871;DHT22;53780;44.998;9.926;2023-03-14T15:57:09;16.84;71.94
66871;DHT22;53780;44.998;9.926;2023-03-14T16:00:16;16.78;70.97
66871;DHT22;53780;44.998;9.926;2023-03-14T16:03:25;16.81;71.18
66871;DHT22;53780;44.998;9.926;2023-03-14T16:06:29;16.68;70.91
66871;DHT22;53780;44.998;9.926;2023-03-14T16:09:35;16.75;70.79
66871;DHT22;53780;44.998;9.926;2023-03-14T16:12:39;16.74;70.86
66871;DHT22;53780;44.998;9.926;2023-03-14T16:15:59;16.74;71.97
66871;DHT22;53780;44.998;9.926;2023-03-14T16:19:06;16.72;71.98
66871;DHT22;53780;44.998;9.926;2023-03-14T16:22:10;16.68;71.99
66871;DHT22;53780;44.998;9.926;2023-03-14T16:25:14;16.63;72.19
66871;DHT22;53780;44.998;9.926;2023-03-14T16:28:18;16.56;72.47
66871;DHT22;53780;44.998;9.926;2023-03-14T16:31:22;16.49;72.48
66871;DHT22;53780;44.998;9.926;2023-03-14T16:34:28;16.43;72.75
66871;DHT22;53780;44.998;9.926;2023-03-14T16:37:32;16.36;73.01
66871;DHT22;53780;44.998;9.926;2023-03-14T16:40:36;16.29;73.44
66871;DHT22;53780;44.998;9.926;2023-03-14T16:43:40;16.20;73.89
66871;DHT22;53780;44.998;9.926;2023-03-14T16:46:44;16.13;74.39
66871;DHT22;53780;44.998;9.926;2023-03-14T16:49:48;16.06;74.38
66871;DHT22;53780;44.998;9.926;2023-03-14T16:52:51;15.96;74.60
66871;DHT22;53780;44.998;9.926;2023-03-14T16:55:58;15.88;74.88
66871;DHT22;53780;44.998;9.926;2023-03-14T16:59:03;15.77;75.15
66871;DHT22;53780;44.998;9.926;2023-03-14T17:02:07;15.64;75.55
66871;DHT22;53780;44.998;9.926;2023-03-14T17:05:11;15.54;75.65
66871;DHT22;53780;44.998;9.926;2023-03-14T17:08:17;15.46;75.96
66871;DHT22;53780;44.998;9.926;2023-03-14T17:11:22;15.34;75.97
66871;DHT22;53780;44.998;9.926;2023-03-14T17:14:26;15.26;76.08
66871;DHT22;53780;44.998;9.926;2023-03-14T17:17:30;15.18;76.51
66871;DHT22;53780;44.998;9.926;2023-03-14T17:20:33;15.06;76.77
66871;DHT22;53780;44.998;9.926;2023-03-14T17:23:38;15.03;77.05
66871;DHT22;53780;44.998;9.926;2023-03-14T17:26:42;15.02;76.98
66871;DHT22;53780;44.998;9.926;2023-03-14T17:29:47;14.96;77.05
66871;DHT22;53780;44.998;9.926;2023-03-14T17:32:51;14.93;77.10
66871;DHT22;53780;44.998;9.926;2023-03-14T17:35:55;14.86;77.17
66871;DHT22;53780;44.998;9.926;2023-03-14T17:38:59;14.85;77.22
66871;DHT22;53780;44.998;9.926;2023-03-14T17:42:04;14.78;77.32
66871;DHT22;53780;44.998;9.926;2023-03-14T17:45:09;14.72;77.58
66871;DHT22;53780;44.998;9.926;2023-03-14T17:48:13;14.67;77.68
66871;DHT22;53780;44.998;9.926;2023-03-14T17:51:17;14.61;77.80
66871;DHT22;53780;44.998;9.926;2023-03-14T17:54:20;14.58;77.79
66871;DHT22;53780;44.998;9.926;2023-03-14T17:57:24;14.51;77.65
66871;DHT22;53780;44.998;9.926;2023-03-14T18:00:28;14.44;77.80
66871;DHT22;53780;44.998;9.926;2023-03-14T18:03:32;14.40;77.92
66871;DHT22;53780;44.998;9.926;2023-03-14T18:06:35;14.30;78.37
66871;DHT22;53780;44.998;9.926;2023-03-14T18:09:40;14.24;78.50
66871;DHT22;53780;44.998;9.926;2023-03-14T18:12:44;14.20;78.55
66871;DHT22;53780;44.998;9.926;2023-03-14T18:15:48;14.16;78.75
66871;DHT22;53780;44.998;9.926;2023-03-14T18:18:55;14.13;78.92
66871;DHT22;53780;44.998;9.926;2023-03-14T18:22:01;14.13;78.94
66871;DHT22;53780;44.998;9.926;2023-03-14T18:25:05;14.13;78.84
66871;DHT22;53780;44.998;9.926;2023-03-14T18:28:09;14.12;78.84
66871;DHT22;53780;44.998;9.926;2023-03-14T18:31:14;14.09;78.76
66871;DHT22;53780;44.998;9.926;2023-03-14T18:34:18;14.09;78.59
66871;DHT22;53780;44.998;9.926;2023-03-14T18:37:23;14.08;78.66
66871;DHT22;53780;44.998;9.926;2023-03-14T18:40:27;14.13;78.89
66871;DHT22;53780;44.998;9.926;2023-03-14T18:43:31;14.13;78.82
66871;DHT22;53780;44.998;9.926;2023-03-14T18:46:36;14.10;78.46
66871;DHT22;53780;44.998;9.926;2023-03-14T18:49:40;14.10;78.43
66871;DHT22;53780;44.998;9.926;2023-03-14T18:52:43;14.10;78.36
66871;DHT22;53780;44.998;9.926;2023-03-14T18:55:47;14.13;78.29
66871;DHT22;53780;44.998;9.926;2023-03-14T18:58:51;14.10;78.18
66871;DHT22;53780;44.998;9.926;2023-03-14T19:01:55;14.12;78.13
66871;DHT22;53780;44.998;9.926;2023-03-14T19:04:59;14.12;78.06
66871;DHT22;53780;44.998;9.926;2023-03-14T19:08:03;14.10;77.87
66871;DHT22;53780;44.998;9.926;2023-03-14T19:11:11;14.13;77.79
66871;DHT22;53780;44.998;9.926;2023-03-14T19:14:15;14.10;77.96
66871;DHT22;53780;44.998;9.926;2023-03-14T19:17:22;14.13;77.90
66871;DHT22;53780;44.998;9.926;2023-03-14T19:20:26;14.13;78.01
66871;DHT22;53780;44.998;9.926;2023-03-14T19:23:32;14.10;78.32
66871;DHT22;53780;44.998;9.926;2023-03-14T19:26:36;14.10;78.37
66871;DHT22;53780;44.998;9.926;2023-03-14T19:29:40;14.09;78.46
66871;DHT22;53780;44.998;9.926;2023-03-14T19:32:45;14.08;78.57
66871;DHT22;53780;44.998;9.926;2023-03-14T19:35:49;14.05;78.50
66871;DHT22;53780;44.998;9.926;2023-03-14T19:38:53;13.98;78.61
66871;DHT22;53780;44.998;9.926;2023-03-14T19:41:57;13.89;78.76
66871;DHT22;53780;44.998;9.926;2023-03-14T19:45:02;13.86;78.71
66871;DHT22;53780;44.998;9.926;2023-03-14T19:48:09;13.79;78.93
66871;DHT22;53780;44.998;9.926;2023-03-14T19:51:14;13.69;79.35
66871;DHT22;53780;44.998;9.926;2023-03-14T19:54:19;13.69;79.72
66871;DHT22;53780;44.998;9.926;2023-03-14T19:57:23;13.71;79.67
66871;DHT22;53780;44.998;9.926;2023-03-14T20:00:27;13.72;79.49
66871;DHT22;53780;44.998;9.926;2023-03-14T20:03:36;13.51;80.13
66871;DHT22;53780;44.998;9.926;2023-03-14T20:06:40;13.51;80.31
66871;DHT22;53780;44.998;9.926;2023-03-14T20:09:48;13.55;80.12
66871;DHT22;53780;44.998;9.926;2023-03-14T20:12:52;13.47;80.34
66871;DHT22;53780;44.998;9.926;2023-03-14T20:15:56;13.27;80.92
66871;DHT22;53780;44.998;9.926;2023-03-14T20:19:10;13.23;81.07
66871;DHT22;53780;44.998;9.926;2023-03-14T20:22:14;13.30;80.87
66871;DHT22;53780;44.998;9.926;2023-03-14T20:25:18;13.36;80.44
66871;DHT22;53780;44.998;9.926;2023-03-14T20:28:23;13.33;80.31
66871;DHT22;53780;44.998;9.926;2023-03-14T20:31:28;13.21;80.74
66871;DHT22;53780;44.998;9.926;2023-03-14T20:34:32;13.23;80.73
66871;DHT22;53780;44.998;9.926;2023-03-14T20:37:38;13.26;80.49
66871;DHT22;53780;44.998;9.926;2023-03-14T20:40:44;13.34;80.51
66871;DHT22;53780;44.998;9.926;2023-03-14T20:43:48;13.30;80.57
66871;DHT22;53780;44.998;9.926;2023-03-14T20:46:52;13.33;80.34
66871;DHT22;53780;44.998;9.926;2023-03-14T20:49:56;13.36;80.22